Financial Plaza, Florida
Current Conditions -  °F | °C
As of 7:53 AM on Thursday 30 Oct 2014 (Local Time) from KFLL Reporting Station
Few Clouds Few Clouds  
Wind Chill: 73°   Ceiling: Unl
Heat Index: 73°   Visibility: 10mi
Dew Point: 69°   Wind: 3mph
Humidity: 87%   Direction: 320°NW
Pressure: 29.96"   Gusts: NA
Location:  26.1179°N, 80.1441°W
Report Text: KFLL 301153Z 32003KT 10SM FEW034 23/21 A2996 RMK AO2 SLP144 T02280206 10239 20222 53006
Loading
Personal Weather Stations






























Interactive Weather Map
Tropical Storm Tracking
New forecast layout! Learn more

10-Day Weather Forecast

Advertisements
Track Severe Weather on mobile